Betancuria — EAMH — position and weather

sailwx.info

Track history (hours):
 
Tides and Currents Weather Stations Pressure Air Temp Water Temp Dewpoint Dewpoint Depression Visibility Wind Speed Wind Dir Waves Ship Positions

Betancuria

Last reported at 2017-Jan-13 23:33 UTC. Time now 2017-Jan-17 19:22 UTC.
Position N 38°49' E 009°09'.

Length 141 m; draft 4.7 m.

Type: Ship. MMSI: 224471000.

Date/timePositionNaut miles runAvg speedWind from/ knotsBaromVisibWave heightAir tempDewpointWater temp
2017-Jan-13 23:33N 38°49' E 009°09'1110.0
2017-Jan-13 22:29N 38°46' E 008°56'910.0
2017-Jan-13 21:32N 38°45' E 008°44'38310.3
2017-Jan-12 08:11N 37°03' E 000°55'911.1
2017-Jan-12 07:25N 37°01' E 000°45'2110.7
2017-Jan-12 05:27N 36°55' E 000°19'1010.8
2017-Jan-12 04:30N 36°53' E 000°07'26010.3
2017-Jan-11 03:24N 36°02' W 005°10'1011.9
2017-Jan-11 02:33N 36°05' W 005°21'5 0.8
2017-Jan-10 19:27N 36°09' W 005°26'4 4.5
2017-Jan-10 18:29N 36°05' W 005°23'1010.7
2017-Jan-10 17:33N 35°57' W 005°31'21810.4
2017-Jan-09 20:32N 37°22' W 009°42'1111.4
2017-Jan-09 19:33N 37°33' W 009°45'1111.5
2017-Jan-09 18:33N 37°44' W 009°48'1211.3
2017-Jan-09 17:31N 37°55' W 009°52'1111.5
2017-Jan-09 16:33N 38°06' W 009°55'1211.5
2017-Jan-09 15:33N 38°17' W 009°58'1111.4
2017-Jan-09 14:33N 38°29' W 010°01'1111.3
2017-Jan-09 13:33N 38°39' W 010°05'  
2017-Jan-07 07:33N 47°54' W 006°33'18710.2
2017-Jan-06 13:06N 49°57' W 002°57'5 9.2
2017-Jan-06 12:33N 49°59' W 002°50'3510.2
2017-Jan-06 09:10N 50°08' W 001°58'812.5
2017-Jan-06 08:33N 50°09' W 001°47'6112.2
2017-Jan-06 03:33N 50°25' W 000°14'1310.0
2017-Jan-06 02:16N 50°29' E 000°05'7 9.7
2017-Jan-06 01:33N 50°31' E 000°16'4411.0
2017-Jan-05 21:31N 50°54' E 001°16'1111.6
2017-Jan-05 20:33N 51°02' E 001°28'10 9.9
2017-Jan-05 19:33N 51°09' E 001°39'9 9.2
2017-Jan-05 18:33N 51°15' E 001°49'9 9.1
2017-Jan-05 17:33N 51°23' E 001°56'10 9.8
2017-Jan-05 16:33N 51°31' E 002°06'9010.7
2017-Jan-05 08:09N 52°31' E 003°55'6 9.4
2017-Jan-05 07:33N 52°31' E 004°04'9 9.3
2017-Jan-05 06:34N 52°30' E 004°19'9 9.0
2017-Jan-05 05:34N 52°28' E 004°33'2 2.0
2017-Jan-05 04:33N 52°28' E 004°36'0 0.0
2017-Jan-05 03:33N 52°28' E 004°36'0 0.0
2017-Jan-05 02:33N 52°28' E 004°36'0 0.0
2017-Jan-05 01:33N 52°28' E 004°36'0 0.0
2017-Jan-05 00:33N 52°28' E 004°36'0 0.0
2017-Jan-04 23:33N 52°28' E 004°36'0 0.0
2017-Jan-04 22:33N 52°28' E 004°36'0 0.0
2017-Jan-04 21:33N 52°28' E 004°36'0 0.0
2017-Jan-04 20:33N 52°28' E 004°36'0 0.0
2017-Jan-04 19:33N 52°28' E 004°36'0 0.0
2017-Jan-04 18:33N 52°28' E 004°36'0 0.0
2017-Jan-04 17:33N 52°28' E 004°36'0 0.0
2017-Jan-04 16:33N 52°28' E 004°36'0 0.0
2017-Jan-04 15:33N 52°28' E 004°36'0 0.0
2017-Jan-04 14:33N 52°28' E 004°36'0 0.0
2017-Jan-04 13:33N 52°28' E 004°36'0 0.0
2017-Jan-04 12:33N 52°28' E 004°36'0 0.0
2017-Jan-04 11:33N 52°28' E 004°36'0 0.0
2017-Jan-04 10:33N 52°28' E 004°36'0 0.0
2017-Jan-04 09:30N 52°28' E 004°36'0 0.0
2017-Jan-04 08:33N 52°28' E 004°36'0 0.0
2017-Jan-04 07:30N 52°28' E 004°36'0 0.0
2017-Jan-04 06:33N 52°28' E 004°36'0 0.0
2017-Jan-04 05:33N 52°28' E 004°36'0 0.0
2017-Jan-04 04:33N 52°28' E 004°36'0 0.0
2017-Jan-04 03:33N 52°28' E 004°36'0 0.0
2017-Jan-04 02:33N 52°28' E 004°36'0 0.0
2017-Jan-04 01:33N 52°28' E 004°36'0 0.0
2017-Jan-04 00:33N 52°28' E 004°36'0 0.0
2017-Jan-03 23:33N 52°28' E 004°36'  
Track history (hours):
 
Tides and Currents Weather Stations Pressure Air Temp Water Temp Dewpoint Dewpoint Depression Visibility Wind Speed Wind Dir Waves Ship Positions

Betancuria

Last reported at 2017-Jan-13 23:33 UTC. Time now 2017-Jan-17 19:22 UTC.
Position N 38°49' E 009°09'.

Length 141 m; draft 4.7 m.

Type: Ship. MMSI: 224471000.

Date/timePositionNaut miles runAvg speedWind from/ knotsBaromVisibWave heightAir tempDewpointWater temp
2017-Jan-13 23:33N 38°49' E 009°09'1110.0
2017-Jan-13 22:29N 38°46' E 008°56'910.0
2017-Jan-13 21:32N 38°45' E 008°44'38310.3
2017-Jan-12 08:11N 37°03' E 000°55'911.1
2017-Jan-12 07:25N 37°01' E 000°45'2110.7
2017-Jan-12 05:27N 36°55' E 000°19'1010.8
2017-Jan-12 04:30N 36°53' E 000°07'26010.3
2017-Jan-11 03:24N 36°02' W 005°10'1011.9
2017-Jan-11 02:33N 36°05' W 005°21'5 0.8
2017-Jan-10 19:27N 36°09' W 005°26'4 4.5
2017-Jan-10 18:29N 36°05' W 005°23'1010.7
2017-Jan-10 17:33N 35°57' W 005°31'21810.4
2017-Jan-09 20:32N 37°22' W 009°42'1111.4
2017-Jan-09 19:33N 37°33' W 009°45'1111.5
2017-Jan-09 18:33N 37°44' W 009°48'1211.3
2017-Jan-09 17:31N 37°55' W 009°52'1111.5
2017-Jan-09 16:33N 38°06' W 009°55'1211.5
2017-Jan-09 15:33N 38°17' W 009°58'1111.4
2017-Jan-09 14:33N 38°29' W 010°01'1111.3
2017-Jan-09 13:33N 38°39' W 010°05'  
2017-Jan-07 07:33N 47°54' W 006°33'18710.2
2017-Jan-06 13:06N 49°57' W 002°57'5 9.2
2017-Jan-06 12:33N 49°59' W 002°50'3510.2
2017-Jan-06 09:10N 50°08' W 001°58'812.5
2017-Jan-06 08:33N 50°09' W 001°47'6112.2
2017-Jan-06 03:33N 50°25' W 000°14'1310.0
2017-Jan-06 02:16N 50°29' E 000°05'7 9.7
2017-Jan-06 01:33N 50°31' E 000°16'4411.0
2017-Jan-05 21:31N 50°54' E 001°16'1111.6
2017-Jan-05 20:33N 51°02' E 001°28'10 9.9
2017-Jan-05 19:33N 51°09' E 001°39'9 9.2
2017-Jan-05 18:33N 51°15' E 001°49'9 9.1
2017-Jan-05 17:33N 51°23' E 001°56'10 9.8
2017-Jan-05 16:33N 51°31' E 002°06'9010.7
2017-Jan-05 08:09N 52°31' E 003°55'6 9.4
2017-Jan-05 07:33N 52°31' E 004°04'9 9.3
2017-Jan-05 06:34N 52°30' E 004°19'9 9.0
2017-Jan-05 05:34N 52°28' E 004°33'2 2.0
2017-Jan-05 04:33N 52°28' E 004°36'0 0.0
2017-Jan-05 03:33N 52°28' E 004°36'0 0.0
2017-Jan-05 02:33N 52°28' E 004°36'0 0.0
2017-Jan-05 01:33N 52°28' E 004°36'0 0.0
2017-Jan-05 00:33N 52°28' E 004°36'0 0.0
2017-Jan-04 23:33N 52°28' E 004°36'0 0.0
2017-Jan-04 22:33N 52°28' E 004°36'0 0.0
2017-Jan-04 21:33N 52°28' E 004°36'0 0.0
2017-Jan-04 20:33N 52°28' E 004°36'0 0.0
2017-Jan-04 19:33N 52°28' E 004°36'0 0.0
2017-Jan-04 18:33N 52°28' E 004°36'0 0.0
2017-Jan-04 17:33N 52°28' E 004°36'0 0.0
2017-Jan-04 16:33N 52°28' E 004°36'0 0.0
2017-Jan-04 15:33N 52°28' E 004°36'0 0.0
2017-Jan-04 14:33N 52°28' E 004°36'0 0.0
2017-Jan-04 13:33N 52°28' E 004°36'0 0.0
2017-Jan-04 12:33N 52°28' E 004°36'0 0.0
2017-Jan-04 11:33N 52°28' E 004°36'0 0.0
2017-Jan-04 10:33N 52°28' E 004°36'0 0.0
2017-Jan-04 09:30N 52°28' E 004°36'0 0.0
2017-Jan-04 08:33N 52°28' E 004°36'0 0.0
2017-Jan-04 07:30N 52°28' E 004°36'0 0.0
2017-Jan-04 06:33N 52°28' E 004°36'0 0.0
2017-Jan-04 05:33N 52°28' E 004°36'0 0.0
2017-Jan-04 04:33N 52°28' E 004°36'0 0.0
2017-Jan-04 03:33N 52°28' E 004°36'0 0.0
2017-Jan-04 02:33N 52°28' E 004°36'0 0.0
2017-Jan-04 01:33N 52°28' E 004°36'0 0.0
2017-Jan-04 00:33N 52°28' E 004°36'0 0.0
2017-Jan-03 23:33N 52°28' E 004°36'  

Dump ship's entire track history